Albayzin — 5BLJ4 — position and weather

sailwx.info

Track history (hours):
 
Tides and Currents Weather Stations Pressure Air Temp Water Temp Dewpoint Dewpoint Depression Visibility Wind Speed Wind Dir Waves Ship Positions

Albayzin

Last reported at 2017-Oct-16 13:30 UTC. Time now 2017-Oct-17 01:12 UTC.
Position N 35°27' W 007°25'.

Length 186 m; draft 6.4 m.

Type: Passenger vessel. MMSI: 210300000.

Date/timePositionNaut miles runAvg speedWind from/ knotsBaromVisibWave heightAir tempDewpointWater temp
2017-Oct-16 13:30N 35°27' W 007°25'7113.4
2017-Oct-16 08:13N 34°31' W 008°19'6213.1
2017-Oct-16 03:28N 33°43' W 009°06'32113.4
2017-Oct-15 03:29N 29°30' W 012°58'2512.4
2017-Oct-15 01:26N 29°10' W 013°17'512.0
2017-Oct-15 00:59N 29°06' W 013°20'714.6
2017-Oct-15 00:30N 29°01' W 013°25'612.2
2017-Oct-15 00:00N 28°58' W 013°32'0 0.2
2017-Oct-14 23:19N 28°58' W 013°32'0 0.0
2017-Oct-14 22:52N 28°58' W 013°32'0 0.0
2017-Oct-14 22:30N 28°58' W 013°32'0 0.7
2017-Oct-14 22:00N 28°58' W 013°32'713.8
2017-Oct-14 21:30N 28°52' W 013°35'31 8.9
2017-Oct-14 18:00N 28°23' W 013°50'1219.4
2017-Oct-14 17:24N 28°13' W 013°56'820.5
2017-Oct-14 17:00N 28°09' W 014°04'1020.2
2017-Oct-14 16:30N 28°04' W 014°14'1020.1
2017-Oct-14 16:01N 28°00' W 014°24'1020.4
2017-Oct-14 15:30N 28°02' W 014°36'1020.2
2017-Oct-14 15:00N 28°03' W 014°47'1020.4
2017-Oct-14 14:30N 28°04' W 014°59'1020.2
2017-Oct-14 14:00N 28°05' W 015°10'1020.1
2017-Oct-14 13:30N 28°07' W 015°21'4 7.4
2017-Oct-14 13:00N 28°09' W 015°25'0 0.0
2017-Oct-14 12:23N 28°09' W 015°25'0 0.0
2017-Oct-14 11:56N 28°09' W 015°25'0 0.0
2017-Oct-14 11:26N 28°09' W 015°25'0 0.0
2017-Oct-14 10:56N 28°09' W 015°25'0 0.0
2017-Oct-14 10:26N 28°09' W 015°25'0 0.0
2017-Oct-14 09:56N 28°09' W 015°25'0 0.0
2017-Oct-14 09:29N 28°09' W 015°25'0 0.0
2017-Oct-14 08:59N 28°09' W 015°25'0 0.0
2017-Oct-14 08:29N 28°09' W 015°25'0 0.0
2017-Oct-14 07:59N 28°09' W 015°25'0 0.0
2017-Oct-14 07:30N 28°09' W 015°25'0 0.5
2017-Oct-14 07:00N 28°08' W 015°25'2 3.9
2017-Oct-14 06:31N 28°07' W 015°23'1019.0
2017-Oct-14 06:01N 28°17' W 015°22'1121.0
2017-Oct-14 05:31N 28°27' W 015°23'714.6
2017-Oct-14 05:00N 28°34' W 015°24'611.6
2017-Oct-14 04:30N 28°35' W 015°31'612.3
2017-Oct-14 04:00N 28°37' W 015°37'611.8
2017-Oct-14 03:30N 28°33' W 015°42'612.2
2017-Oct-14 03:00N 28°28' W 015°47'611.8
2017-Oct-14 02:30N 28°24' W 015°51'611.7
2017-Oct-14 02:00N 28°19' W 015°56'5 9.1
2017-Oct-14 01:30N 28°17' W 016°00'612.9
2017-Oct-14 01:00N 28°22' W 016°05'613.0
2017-Oct-14 00:30N 28°26' W 016°11'4 8.4
2017-Oct-14 00:00N 28°29' W 016°15'0 0.1
2017-Oct-13 23:18N 28°29' W 016°15'0 0.0
2017-Oct-13 22:54N 28°29' W 016°15'0 0.0
2017-Oct-13 22:24N 28°29' W 016°15'0 0.0
2017-Oct-13 21:51N 28°29' W 016°15'0 0.0
2017-Oct-13 21:27N 28°29' W 016°15'0 0.1
2017-Oct-13 21:00N 28°29' W 016°15'4 7.6
2017-Oct-13 20:30N 28°29' W 016°10'917.3
2017-Oct-13 20:00N 28°36' W 016°05'1019.7
2017-Oct-13 19:30N 28°39' W 016°16'1821.5
2017-Oct-13 18:41N 28°40' W 016°36'421.4
2017-Oct-13 18:30N 28°40' W 016°40'3 0.2
2017-Oct-13 02:50N 28°39' W 016°43'619.4
2017-Oct-13 02:30N 28°39' W 016°36'1813.0
2017-Oct-13 01:07N 28°39' W 016°15'113.1
2017-Oct-13 01:00N 28°39' W 016°14'612.1
2017-Oct-13 00:30N 28°37' W 016°07'611.9
2017-Oct-13 00:00N 28°32' W 016°04'612.1
2017-Oct-12 23:30N 28°29' W 016°10'4 7.5
2017-Oct-12 23:00N 28°29' W 016°15'0 0.0
2017-Oct-12 22:30N 28°29' W 016°15'0 0.0
2017-Oct-12 22:00N 28°29' W 016°15'0 0.0
2017-Oct-12 21:30N 28°29' W 016°15'0 0.0
2017-Oct-12 21:00N 28°29' W 016°15'0 0.0
2017-Oct-12 20:30N 28°29' W 016°15'0 0.0
2017-Oct-12 20:00N 28°29' W 016°15'0 0.0
2017-Oct-12 19:30N 28°29' W 016°15'0 0.0
2017-Oct-12 19:00N 28°29' W 016°15'0 0.0
2017-Oct-12 18:30N 28°29' W 016°15'0 0.0
2017-Oct-12 18:00N 28°29' W 016°15'0 0.0
2017-Oct-12 17:30N 28°29' W 016°15'0 0.0
2017-Oct-12 17:00N 28°29' W 016°15'0 0.0
2017-Oct-12 16:30N 28°29' W 016°15'0 0.0
2017-Oct-12 16:00N 28°29' W 016°15'0 0.0
2017-Oct-12 15:30N 28°29' W 016°15'3 7.0
2017-Oct-12 15:00N 28°28' W 016°11'1121.5
2017-Oct-12 14:30N 28°24' W 015°59'1121.4
2017-Oct-12 14:00N 28°21' W 015°48'1121.5
2017-Oct-12 13:30N 28°17' W 015°36'1121.2
2017-Oct-12 13:00N 28°13' W 015°25'611.6
2017-Oct-12 12:31N 28°07' W 015°25'2 3.0
2017-Oct-12 12:01N 28°09' W 015°25'0 0.0
2017-Oct-12 11:26N 28°09' W 015°25'0 0.0
2017-Oct-12 10:56N 28°09' W 015°25'0 0.0
2017-Oct-12 10:26N 28°09' W 015°25'0 0.0
2017-Oct-12 09:56N 28°09' W 015°25'0 0.0
2017-Oct-12 09:23N 28°09' W 015°25'0 0.0
2017-Oct-12 08:56N 28°09' W 015°25'0 0.0
2017-Oct-12 08:30N 28°09' W 015°25'0 0.0
2017-Oct-12 08:00N 28°09' W 015°25'1 1.3
2017-Oct-12 07:30N 28°08' W 015°25'3 7.0
2017-Oct-12 07:00N 28°08' W 015°21'713.1
2017-Oct-12 06:30N 28°12' W 015°16'612.5
2017-Oct-12 06:00N 28°17' W 015°11'713.8
2017-Oct-12 05:30N 28°22' W 015°05'713.9
2017-Oct-12 05:00N 28°26' W 014°59'713.8
2017-Oct-12 04:30N 28°31' W 014°53'714.1
2017-Oct-12 04:00N 28°32' W 014°45'1020.3
2017-Oct-12 03:30N 28°34' W 014°34'1020.2
2017-Oct-12 03:00N 28°39' W 014°24'917.0
2017-Oct-12 02:30N 28°43' W 014°15'918.3
2017-Oct-12 02:00N 28°47' W 014°06'917.6
2017-Oct-12 01:30N 28°49' W 013°56'714.2
2017-Oct-12 01:00N 28°49' W 013°48'1020.4
2017-Oct-12 00:30N 28°54' W 013°38'7 2.1
2017-Oct-11 21:21N 28°58' W 013°32'2 5.3
2017-Oct-11 21:00N 28°58' W 013°30'1020.4
2017-Oct-11 20:30N 29°05' W 013°21'1121.7
2017-Oct-11 19:59N 29°14' W 013°13'1121.9
2017-Oct-11 19:30N 29°22' W 013°06'1121.7
2017-Oct-11 19:00N 29°31' W 012°58'1120.9
2017-Oct-11 18:30N 29°39' W 012°51'1020.8
2017-Oct-11 18:01N 29°48' W 012°44'1121.1
2017-Oct-11 17:30N 29°56' W 012°37'1521.1
2017-Oct-11 16:48N 30°07' W 012°26'34520.4
2017-Oct-10 23:51N 34°38' W 008°12'720.6
2017-Oct-10 23:30N 34°44' W 008°07'1020.7
2017-Oct-10 23:00N 34°52' W 007°59'1320.6
2017-Oct-10 22:24N 35°02' W 007°50'820.5
2017-Oct-10 22:00N 35°08' W 007°43'1020.5
2017-Oct-10 21:30N 35°16' W 007°35'1020.6
2017-Oct-10 21:01N 35°24' W 007°27'1020.2
2017-Oct-10 20:30N 35°32' W 007°20'1020.3
2017-Oct-10 20:00N 35°40' W 007°12'1020.4
2017-Oct-10 19:30N 35°48' W 007°04'1120.2
2017-Oct-10 18:57N 35°57' W 006°57'919.8
2017-Oct-10 18:30N 36°04' W 006°50'1020.1
2017-Oct-10 18:00N 36°12' W 006°42'28 2.7
2017-Oct-10 07:39N 36°32' W 006°17'0 0.0
2017-Oct-10 07:16N 36°32' W 006°17'0 0.0
2017-Oct-10 07:00N 36°32' W 006°17'89 3.2
2017-Oct-09 03:03N 35°24' W 007°29'113.3
2017-Oct-09 03:01N 35°24' W 007°30'713.3
2017-Oct-09 02:29N 35°19' W 007°35'713.4
2017-Oct-09 02:00N 35°13' W 007°40'713.3
2017-Oct-09 01:30N 35°08' W 007°45'713.3
2017-Oct-09 01:00N 35°03' W 007°50'713.0
2017-Oct-09 00:30N 34°57' W 007°54'612.9
2017-Oct-09 00:00N 34°52' W 007°59'611.4
2017-Oct-08 23:30N 34°48' W 008°03'2215.9
2017-Oct-08 22:07N 34°30' W 008°20'220.2
2017-Oct-08 22:01N 34°29' W 008°21'1020.0
2017-Oct-08 21:31N 34°21' W 008°29'1720.1
2017-Oct-08 20:39N 34°07' W 008°42'319.4
2017-Oct-08 20:28N 34°04' W 008°44'1320.0
2017-Oct-08 19:49N 33°54' W 008°54'619.9
2017-Oct-08 19:30N 33°49' W 008°58'1219.8
2017-Oct-08 18:55N 33°39' W 009°06'37217.6
2017-Oct-07 21:47N 28°48' W 013°38'621.0
2017-Oct-07 21:30N 28°43' W 013°41'1620.2
2017-Oct-07 20:42N 28°29' W 013°50'1 0.7
2017-Oct-07 19:20N 28°30' W 013°51'2013.9
2017-Oct-07 17:53N 28°11' W 013°59'820.8
2017-Oct-07 17:30N 28°07' W 014°07'1020.3
2017-Oct-07 17:00N 28°02' W 014°17'1119.8
2017-Oct-07 16:28N 28°01' W 014°29'920.5
2017-Oct-07 16:01N 28°01' W 014°39'1020.2
2017-Oct-07 15:30N 28°03' W 014°51'714.0
2017-Oct-07 15:00N 28°04' W 014°59'918.0
2017-Oct-07 14:30N 28°05' W 015°09'1020.0
2017-Oct-07 14:00N 28°06' W 015°20'510.1
2017-Oct-07 13:31N 28°09' W 015°25'0 0.1
2017-Oct-07 12:58N 28°09' W 015°25'0 0.0
2017-Oct-07 12:25N 28°09' W 015°25'0 0.0
2017-Oct-07 11:58N 28°09' W 015°25'0 0.0
2017-Oct-07 11:28N 28°09' W 015°25'0 0.0
2017-Oct-07 10:58N 28°09' W 015°25'0 0.0
2017-Oct-07 10:28N 28°09' W 015°25'0 0.0
2017-Oct-07 09:58N 28°09' W 015°25'0 0.0
2017-Oct-07 09:28N 28°09' W 015°25'0 0.0
2017-Oct-07 08:46N 28°09' W 015°25'0 0.0
2017-Oct-07 08:28N 28°09' W 015°25'0 0.0
2017-Oct-07 07:58N 28°09' W 015°25'0 0.0
2017-Oct-07 07:28N 28°09' W 015°25'0 0.1
2017-Oct-07 07:00N 28°09' W 015°25'2 3.5
2017-Oct-07 06:30N 28°07' W 015°24'5 9.7
2017-Oct-07 06:00N 28°12' W 015°22'713.3
2017-Oct-07 05:30N 28°18' W 015°25'713.5
2017-Oct-07 05:00N 28°24' W 015°28'713.4
2017-Oct-07 04:30N 28°30' W 015°31'713.2
2017-Oct-07 04:00N 28°36' W 015°34'5 9.3
2017-Oct-07 03:30N 28°35' W 015°39'612.9
2017-Oct-07 03:00N 28°30' W 015°44'612.9
2017-Oct-07 02:30N 28°25' W 015°49'713.2
2017-Oct-07 02:00N 28°20' W 015°54'611.3
2017-Oct-07 01:29N 28°17' W 015°59'613.4
2017-Oct-07 01:00N 28°21' W 016°05'713.7
2017-Oct-07 00:30N 28°26' W 016°10'5 1.4
2017-Oct-06 21:15N 28°29' W 016°15'0 0.1
2017-Oct-06 20:58N 28°29' W 016°15'2 4.6
2017-Oct-06 20:29N 28°28' W 016°12'715.5
2017-Oct-06 20:00N 28°32' W 016°05'1019.1
2017-Oct-06 19:28N 28°40' W 016°11'1020.5
2017-Oct-06 18:58N 28°40' W 016°23'1020.2
2017-Oct-06 18:29N 28°39' W 016°34'1320.3
2017-Oct-06 17:50N 28°40' W 016°49'  
Track history (hours):
 
Tides and Currents Weather Stations Pressure Air Temp Water Temp Dewpoint Dewpoint Depression Visibility Wind Speed Wind Dir Waves Ship Positions

Albayzin

Last reported at 2017-Oct-16 13:30 UTC. Time now 2017-Oct-17 01:12 UTC.
Position N 35°27' W 007°25'.

Length 186 m; draft 6.4 m.

Type: Passenger vessel. MMSI: 210300000.

Date/timePositionNaut miles runAvg speedWind from/ knotsBaromVisibWave heightAir tempDewpointWater temp
2017-Oct-16 13:30N 35°27' W 007°25'7113.4
2017-Oct-16 08:13N 34°31' W 008°19'6213.1
2017-Oct-16 03:28N 33°43' W 009°06'32113.4
2017-Oct-15 03:29N 29°30' W 012°58'2512.4
2017-Oct-15 01:26N 29°10' W 013°17'512.0
2017-Oct-15 00:59N 29°06' W 013°20'714.6
2017-Oct-15 00:30N 29°01' W 013°25'612.2
2017-Oct-15 00:00N 28°58' W 013°32'0 0.2
2017-Oct-14 23:19N 28°58' W 013°32'0 0.0
2017-Oct-14 22:52N 28°58' W 013°32'0 0.0
2017-Oct-14 22:30N 28°58' W 013°32'0 0.7
2017-Oct-14 22:00N 28°58' W 013°32'713.8
2017-Oct-14 21:30N 28°52' W 013°35'31 8.9
2017-Oct-14 18:00N 28°23' W 013°50'1219.4
2017-Oct-14 17:24N 28°13' W 013°56'820.5
2017-Oct-14 17:00N 28°09' W 014°04'1020.2
2017-Oct-14 16:30N 28°04' W 014°14'1020.1
2017-Oct-14 16:01N 28°00' W 014°24'1020.4
2017-Oct-14 15:30N 28°02' W 014°36'1020.2
2017-Oct-14 15:00N 28°03' W 014°47'1020.4
2017-Oct-14 14:30N 28°04' W 014°59'1020.2
2017-Oct-14 14:00N 28°05' W 015°10'1020.1
2017-Oct-14 13:30N 28°07' W 015°21'4 7.4
2017-Oct-14 13:00N 28°09' W 015°25'0 0.0
2017-Oct-14 12:23N 28°09' W 015°25'0 0.0
2017-Oct-14 11:56N 28°09' W 015°25'0 0.0
2017-Oct-14 11:26N 28°09' W 015°25'0 0.0
2017-Oct-14 10:56N 28°09' W 015°25'0 0.0
2017-Oct-14 10:26N 28°09' W 015°25'0 0.0
2017-Oct-14 09:56N 28°09' W 015°25'0 0.0
2017-Oct-14 09:29N 28°09' W 015°25'0 0.0
2017-Oct-14 08:59N 28°09' W 015°25'0 0.0
2017-Oct-14 08:29N 28°09' W 015°25'0 0.0
2017-Oct-14 07:59N 28°09' W 015°25'0 0.0
2017-Oct-14 07:30N 28°09' W 015°25'0 0.5
2017-Oct-14 07:00N 28°08' W 015°25'2 3.9
2017-Oct-14 06:31N 28°07' W 015°23'1019.0
2017-Oct-14 06:01N 28°17' W 015°22'1121.0
2017-Oct-14 05:31N 28°27' W 015°23'714.6
2017-Oct-14 05:00N 28°34' W 015°24'611.6
2017-Oct-14 04:30N 28°35' W 015°31'612.3
2017-Oct-14 04:00N 28°37' W 015°37'611.8
2017-Oct-14 03:30N 28°33' W 015°42'612.2
2017-Oct-14 03:00N 28°28' W 015°47'611.8
2017-Oct-14 02:30N 28°24' W 015°51'611.7
2017-Oct-14 02:00N 28°19' W 015°56'5 9.1
2017-Oct-14 01:30N 28°17' W 016°00'612.9
2017-Oct-14 01:00N 28°22' W 016°05'613.0
2017-Oct-14 00:30N 28°26' W 016°11'4 8.4
2017-Oct-14 00:00N 28°29' W 016°15'0 0.1
2017-Oct-13 23:18N 28°29' W 016°15'0 0.0
2017-Oct-13 22:54N 28°29' W 016°15'0 0.0
2017-Oct-13 22:24N 28°29' W 016°15'0 0.0
2017-Oct-13 21:51N 28°29' W 016°15'0 0.0
2017-Oct-13 21:27N 28°29' W 016°15'0 0.1
2017-Oct-13 21:00N 28°29' W 016°15'4 7.6
2017-Oct-13 20:30N 28°29' W 016°10'917.3
2017-Oct-13 20:00N 28°36' W 016°05'1019.7
2017-Oct-13 19:30N 28°39' W 016°16'1821.5
2017-Oct-13 18:41N 28°40' W 016°36'421.4
2017-Oct-13 18:30N 28°40' W 016°40'3 0.2
2017-Oct-13 02:50N 28°39' W 016°43'619.4
2017-Oct-13 02:30N 28°39' W 016°36'1813.0
2017-Oct-13 01:07N 28°39' W 016°15'113.1
2017-Oct-13 01:00N 28°39' W 016°14'612.1
2017-Oct-13 00:30N 28°37' W 016°07'611.9
2017-Oct-13 00:00N 28°32' W 016°04'612.1
2017-Oct-12 23:30N 28°29' W 016°10'4 7.5
2017-Oct-12 23:00N 28°29' W 016°15'0 0.0
2017-Oct-12 22:30N 28°29' W 016°15'0 0.0
2017-Oct-12 22:00N 28°29' W 016°15'0 0.0
2017-Oct-12 21:30N 28°29' W 016°15'0 0.0
2017-Oct-12 21:00N 28°29' W 016°15'0 0.0
2017-Oct-12 20:30N 28°29' W 016°15'0 0.0
2017-Oct-12 20:00N 28°29' W 016°15'0 0.0
2017-Oct-12 19:30N 28°29' W 016°15'0 0.0
2017-Oct-12 19:00N 28°29' W 016°15'0 0.0
2017-Oct-12 18:30N 28°29' W 016°15'0 0.0
2017-Oct-12 18:00N 28°29' W 016°15'0 0.0
2017-Oct-12 17:30N 28°29' W 016°15'0 0.0
2017-Oct-12 17:00N 28°29' W 016°15'0 0.0
2017-Oct-12 16:30N 28°29' W 016°15'0 0.0
2017-Oct-12 16:00N 28°29' W 016°15'0 0.0
2017-Oct-12 15:30N 28°29' W 016°15'3 7.0
2017-Oct-12 15:00N 28°28' W 016°11'1121.5
2017-Oct-12 14:30N 28°24' W 015°59'1121.4
2017-Oct-12 14:00N 28°21' W 015°48'1121.5
2017-Oct-12 13:30N 28°17' W 015°36'1121.2
2017-Oct-12 13:00N 28°13' W 015°25'611.6
2017-Oct-12 12:31N 28°07' W 015°25'2 3.0
2017-Oct-12 12:01N 28°09' W 015°25'0 0.0
2017-Oct-12 11:26N 28°09' W 015°25'0 0.0
2017-Oct-12 10:56N 28°09' W 015°25'0 0.0
2017-Oct-12 10:26N 28°09' W 015°25'0 0.0
2017-Oct-12 09:56N 28°09' W 015°25'0 0.0
2017-Oct-12 09:23N 28°09' W 015°25'0 0.0
2017-Oct-12 08:56N 28°09' W 015°25'0 0.0
2017-Oct-12 08:30N 28°09' W 015°25'0 0.0
2017-Oct-12 08:00N 28°09' W 015°25'1 1.3
2017-Oct-12 07:30N 28°08' W 015°25'3 7.0
2017-Oct-12 07:00N 28°08' W 015°21'713.1
2017-Oct-12 06:30N 28°12' W 015°16'612.5
2017-Oct-12 06:00N 28°17' W 015°11'713.8
2017-Oct-12 05:30N 28°22' W 015°05'713.9
2017-Oct-12 05:00N 28°26' W 014°59'713.8
2017-Oct-12 04:30N 28°31' W 014°53'714.1
2017-Oct-12 04:00N 28°32' W 014°45'1020.3
2017-Oct-12 03:30N 28°34' W 014°34'1020.2
2017-Oct-12 03:00N 28°39' W 014°24'917.0
2017-Oct-12 02:30N 28°43' W 014°15'918.3
2017-Oct-12 02:00N 28°47' W 014°06'917.6
2017-Oct-12 01:30N 28°49' W 013°56'714.2
2017-Oct-12 01:00N 28°49' W 013°48'1020.4
2017-Oct-12 00:30N 28°54' W 013°38'7 2.1
2017-Oct-11 21:21N 28°58' W 013°32'2 5.3
2017-Oct-11 21:00N 28°58' W 013°30'1020.4
2017-Oct-11 20:30N 29°05' W 013°21'1121.7
2017-Oct-11 19:59N 29°14' W 013°13'1121.9
2017-Oct-11 19:30N 29°22' W 013°06'1121.7
2017-Oct-11 19:00N 29°31' W 012°58'1120.9
2017-Oct-11 18:30N 29°39' W 012°51'1020.8
2017-Oct-11 18:01N 29°48' W 012°44'1121.1
2017-Oct-11 17:30N 29°56' W 012°37'1521.1
2017-Oct-11 16:48N 30°07' W 012°26'34520.4
2017-Oct-10 23:51N 34°38' W 008°12'720.6
2017-Oct-10 23:30N 34°44' W 008°07'1020.7
2017-Oct-10 23:00N 34°52' W 007°59'1320.6
2017-Oct-10 22:24N 35°02' W 007°50'820.5
2017-Oct-10 22:00N 35°08' W 007°43'1020.5
2017-Oct-10 21:30N 35°16' W 007°35'1020.6
2017-Oct-10 21:01N 35°24' W 007°27'1020.2
2017-Oct-10 20:30N 35°32' W 007°20'1020.3
2017-Oct-10 20:00N 35°40' W 007°12'1020.4
2017-Oct-10 19:30N 35°48' W 007°04'1120.2
2017-Oct-10 18:57N 35°57' W 006°57'919.8
2017-Oct-10 18:30N 36°04' W 006°50'1020.1
2017-Oct-10 18:00N 36°12' W 006°42'28 2.7
2017-Oct-10 07:39N 36°32' W 006°17'0 0.0
2017-Oct-10 07:16N 36°32' W 006°17'0 0.0
2017-Oct-10 07:00N 36°32' W 006°17'89 3.2
2017-Oct-09 03:03N 35°24' W 007°29'113.3
2017-Oct-09 03:01N 35°24' W 007°30'713.3
2017-Oct-09 02:29N 35°19' W 007°35'713.4
2017-Oct-09 02:00N 35°13' W 007°40'713.3
2017-Oct-09 01:30N 35°08' W 007°45'713.3
2017-Oct-09 01:00N 35°03' W 007°50'713.0
2017-Oct-09 00:30N 34°57' W 007°54'612.9
2017-Oct-09 00:00N 34°52' W 007°59'611.4
2017-Oct-08 23:30N 34°48' W 008°03'2215.9
2017-Oct-08 22:07N 34°30' W 008°20'220.2
2017-Oct-08 22:01N 34°29' W 008°21'1020.0
2017-Oct-08 21:31N 34°21' W 008°29'1720.1
2017-Oct-08 20:39N 34°07' W 008°42'319.4
2017-Oct-08 20:28N 34°04' W 008°44'1320.0
2017-Oct-08 19:49N 33°54' W 008°54'619.9
2017-Oct-08 19:30N 33°49' W 008°58'1219.8
2017-Oct-08 18:55N 33°39' W 009°06'37217.6
2017-Oct-07 21:47N 28°48' W 013°38'621.0
2017-Oct-07 21:30N 28°43' W 013°41'1620.2
2017-Oct-07 20:42N 28°29' W 013°50'1 0.7
2017-Oct-07 19:20N 28°30' W 013°51'2013.9
2017-Oct-07 17:53N 28°11' W 013°59'820.8
2017-Oct-07 17:30N 28°07' W 014°07'1020.3
2017-Oct-07 17:00N 28°02' W 014°17'1119.8
2017-Oct-07 16:28N 28°01' W 014°29'920.5
2017-Oct-07 16:01N 28°01' W 014°39'1020.2
2017-Oct-07 15:30N 28°03' W 014°51'714.0
2017-Oct-07 15:00N 28°04' W 014°59'918.0
2017-Oct-07 14:30N 28°05' W 015°09'1020.0
2017-Oct-07 14:00N 28°06' W 015°20'510.1
2017-Oct-07 13:31N 28°09' W 015°25'0 0.1
2017-Oct-07 12:58N 28°09' W 015°25'0 0.0
2017-Oct-07 12:25N 28°09' W 015°25'0 0.0
2017-Oct-07 11:58N 28°09' W 015°25'0 0.0
2017-Oct-07 11:28N 28°09' W 015°25'0 0.0
2017-Oct-07 10:58N 28°09' W 015°25'0 0.0
2017-Oct-07 10:28N 28°09' W 015°25'0 0.0
2017-Oct-07 09:58N 28°09' W 015°25'0 0.0
2017-Oct-07 09:28N 28°09' W 015°25'0 0.0
2017-Oct-07 08:46N 28°09' W 015°25'0 0.0
2017-Oct-07 08:28N 28°09' W 015°25'0 0.0
2017-Oct-07 07:58N 28°09' W 015°25'0 0.0
2017-Oct-07 07:28N 28°09' W 015°25'0 0.1
2017-Oct-07 07:00N 28°09' W 015°25'2 3.5
2017-Oct-07 06:30N 28°07' W 015°24'5 9.7
2017-Oct-07 06:00N 28°12' W 015°22'713.3
2017-Oct-07 05:30N 28°18' W 015°25'713.5
2017-Oct-07 05:00N 28°24' W 015°28'713.4
2017-Oct-07 04:30N 28°30' W 015°31'713.2
2017-Oct-07 04:00N 28°36' W 015°34'5 9.3
2017-Oct-07 03:30N 28°35' W 015°39'612.9
2017-Oct-07 03:00N 28°30' W 015°44'612.9
2017-Oct-07 02:30N 28°25' W 015°49'713.2
2017-Oct-07 02:00N 28°20' W 015°54'611.3
2017-Oct-07 01:29N 28°17' W 015°59'613.4
2017-Oct-07 01:00N 28°21' W 016°05'713.7
2017-Oct-07 00:30N 28°26' W 016°10'5 1.4
2017-Oct-06 21:15N 28°29' W 016°15'0 0.1
2017-Oct-06 20:58N 28°29' W 016°15'2 4.6
2017-Oct-06 20:29N 28°28' W 016°12'715.5
2017-Oct-06 20:00N 28°32' W 016°05'1019.1
2017-Oct-06 19:28N 28°40' W 016°11'1020.5
2017-Oct-06 18:58N 28°40' W 016°23'1020.2
2017-Oct-06 18:29N 28°39' W 016°34'1320.3
2017-Oct-06 17:50N 28°40' W 016°49'  

Dump ship's entire track history